sensor_id;sensor_type;location;lat;lon;timestamp;pressure;altitude;pressure_sealevel;temperature;humidity
63190;BME280;49286;44.460;26.114;2023-05-23T00:01:44;100198.31;;;14.96;100.00
63190;BME280;49286;44.460;26.114;2023-05-23T00:04:10;100238.22;;;15.25;100.00
63190;BME280;49286;44.460;26.114;2023-05-23T00:06:42;100185.28;;;14.87;100.00
63190;BME280;49286;44.460;26.114;2023-05-23T00:09:12;100174.09;;;14.74;100.00
63190;BME280;49286;44.460;26.114;2023-05-23T00:11:38;100167.88;;;14.77;100.00
63190;BME280;49286;44.460;26.114;2023-05-23T00:14:03;100197.06;;;15.13;100.00
63190;BME280;49286;44.460;26.114;2023-05-23T00:16:32;100096.16;;;14.55;100.00
63190;BME280;49286;44.460;26.114;2023-05-23T00:18:58;100193.28;;;15.25;100.00
63190;BME280;49286;44.460;26.114;2023-05-23T00:21:23;100214.81;;;15.45;100.00
63190;BME280;49286;44.460;26.114;2023-05-23T00:23:49;100199.28;;;15.31;100.00
63190;BME280;49286;44.460;26.114;2023-05-23T00:26:14;100195.94;;;15.23;100.00
63190;BME280;49286;44.460;26.114;2023-05-23T00:28:40;100220.09;;;15.45;100.00
63190;BME280;49286;44.460;26.114;2023-05-23T00:31:05;100221.84;;;15.48;100.00
63190;BME280;49286;44.460;26.114;2023-05-23T00:33:31;100235.47;;;15.29;100.00
63190;BME280;49286;44.460;26.114;2023-05-23T00:35:59;100218.75;;;15.27;100.00
63190;BME280;49286;44.460;26.114;2023-05-23T00:38:24;100230.69;;;15.45;100.00
63190;BME280;49286;44.460;26.114;2023-05-23T00:40:51;100233.09;;;15.56;100.00
63190;BME280;49286;44.460;26.114;2023-05-23T00:43:17;100208.09;;;15.32;100.00
63190;BME280;49286;44.460;26.114;2023-05-23T00:45:43;100177.56;;;15.17;100.00
63190;BME280;49286;44.460;26.114;2023-05-23T00:48:09;100231.13;;;15.27;100.00
63190;BME280;49286;44.460;26.114;2023-05-23T00:50:36;100182.78;;;14.80;100.00
63190;BME280;49286;44.460;26.114;2023-05-23T00:53:02;100228.25;;;14.95;100.00
63190;BME280;49286;44.460;26.114;2023-05-23T00:55:29;100221.00;;;15.05;100.00
63190;BME280;49286;44.460;26.114;2023-05-23T00:57:54;100233.69;;;15.30;100.00
63190;BME280;49286;44.460;26.114;2023-05-23T01:00:24;100224.22;;;15.19;100.00
63190;BME280;49286;44.460;26.114;2023-05-23T01:02:50;100224.25;;;15.18;100.00
63190;BME280;49286;44.460;26.114;2023-05-23T01:05:16;100195.59;;;14.98;100.00
63190;BME280;49286;44.460;26.114;2023-05-23T01:07:45;100189.63;;;14.90;100.00
63190;BME280;49286;44.460;26.114;2023-05-23T01:10:16;100218.41;;;15.04;100.00
63190;BME280;49286;44.460;26.114;2023-05-23T01:15:45;100219.31;;;14.59;100.00
63190;BME280;49286;44.460;26.114;2023-05-23T01:18:15;100204.34;;;14.58;100.00
63190;BME280;49286;44.460;26.114;2023-05-23T01:20:49;100223.81;;;14.97;100.00
63190;BME280;49286;44.460;26.114;2023-05-23T01:31:45;100184.56;;;14.32;100.00
63190;BME280;49286;44.460;26.114;2023-05-23T01:34:12;100171.88;;;14.54;100.00
63190;BME280;49286;44.460;26.114;2023-05-23T01:36:40;100199.81;;;14.65;100.00
63190;BME280;49286;44.460;26.114;2023-05-23T01:39:06;100246.84;;;14.91;100.00
63190;BME280;49286;44.460;26.114;2023-05-23T01:41:32;100164.94;;;14.47;100.00
63190;BME280;49286;44.460;26.114;2023-05-23T01:43:57;100238.78;;;14.98;100.00
63190;BME280;49286;44.460;26.114;2023-05-23T01:46:24;100186.59;;;14.66;100.00
63190;BME280;49286;44.460;26.114;2023-05-23T01:48:52;100171.13;;;14.46;100.00
63190;BME280;49286;44.460;26.114;2023-05-23T01:51:21;100189.16;;;14.24;100.00
63190;BME280;49286;44.460;26.114;2023-05-23T01:53:46;100237.34;;;14.34;100.00
63190;BME280;49286;44.460;26.114;2023-05-23T01:56:13;100208.72;;;14.12;100.00
63190;BME280;49286;44.460;26.114;2023-05-23T01:58:38;100230.44;;;14.27;100.00
63190;BME280;49286;44.460;26.114;2023-05-23T02:01:04;100179.00;;;14.01;100.00
63190;BME280;49286;44.460;26.114;2023-05-23T02:03:30;100171.28;;;13.90;100.00
63190;BME280;49286;44.460;26.114;2023-05-23T02:05:55;100240.22;;;14.20;100.00
63190;BME280;49286;44.460;26.114;2023-05-23T02:08:20;100169.63;;;13.83;100.00
63190;BME280;49286;44.460;26.114;2023-05-23T02:10:46;100169.69;;;13.82;100.00
63190;BME280;49286;44.460;26.114;2023-05-23T02:13:11;100170.47;;;13.87;100.00
63190;BME280;49286;44.460;26.114;2023-05-23T02:15:37;100240.13;;;14.26;100.00
63190;BME280;49286;44.460;26.114;2023-05-23T02:18:02;100197.41;;;14.04;100.00
63190;BME280;49286;44.460;26.114;2023-05-23T02:20:28;100175.75;;;13.87;100.00
63190;BME280;49286;44.460;26.114;2023-05-23T02:22:53;100185.16;;;14.02;100.00
63190;BME280;49286;44.460;26.114;2023-05-23T02:25:19;100243.47;;;14.36;100.00
63190;BME280;49286;44.460;26.114;2023-05-23T02:27:44;100216.47;;;14.22;100.00
63190;BME280;49286;44.460;26.114;2023-05-23T02:30:10;100191.72;;;14.27;100.00
63190;BME280;49286;44.460;26.114;2023-05-23T02:32:36;100248.13;;;14.70;100.00
63190;BME280;49286;44.460;26.114;2023-05-23T02:35:02;100229.78;;;14.64;100.00
63190;BME280;49286;44.460;26.114;2023-05-23T02:37:28;100225.31;;;14.67;100.00
63190;BME280;49286;44.460;26.114;2023-05-23T02:39:54;100248.09;;;14.73;100.00
63190;BME280;49286;44.460;26.114;2023-05-23T02:42:20;100259.38;;;14.80;100.00
63190;BME280;49286;44.460;26.114;2023-05-23T02:44:45;100206.25;;;14.50;100.00
63190;BME280;49286;44.460;26.114;2023-05-23T02:47:10;100245.19;;;14.37;100.00
63190;BME280;49286;44.460;26.114;2023-05-23T02:49:36;100209.66;;;14.10;100.00
63190;BME280;49286;44.460;26.114;2023-05-23T02:52:01;100257.38;;;14.46;100.00
63190;BME280;49286;44.460;26.114;2023-05-23T02:54:27;100259.63;;;14.19;100.00
63190;BME280;49286;44.460;26.114;2023-05-23T02:56:52;100186.53;;;13.71;100.00
63190;BME280;49286;44.460;26.114;2023-05-23T02:59:19;100258.78;;;14.17;100.00
63190;BME280;49286;44.460;26.114;2023-05-23T03:01:46;100235.03;;;14.17;100.00
63190;BME280;49286;44.460;26.114;2023-05-23T03:04:11;100259.72;;;14.11;100.00
63190;BME280;49286;44.460;26.114;2023-05-23T03:06:38;100231.94;;;13.90;100.00
63190;BME280;49286;44.460;26.114;2023-05-23T03:09:04;100269.31;;;14.17;100.00
63190;BME280;49286;44.460;26.114;2023-05-23T03:11:30;100209.19;;;13.85;100.00
63190;BME280;49286;44.460;26.114;2023-05-23T03:13:55;100267.47;;;14.22;100.00
63190;BME280;49286;44.460;26.114;2023-05-23T03:16:21;100256.38;;;14.02;100.00
63190;BME280;49286;44.460;26.114;2023-05-23T03:18:48;100221.38;;;13.92;100.00
63190;BME280;49286;44.460;26.114;2023-05-23T03:21:13;100275.47;;;14.18;100.00
63190;BME280;49286;44.460;26.114;2023-05-23T03:23:39;100274.47;;;14.25;100.00
63190;BME280;49286;44.460;26.114;2023-05-23T03:26:04;100245.06;;;13.95;100.00
63190;BME280;49286;44.460;26.114;2023-05-23T03:28:31;100214.47;;;13.83;100.00
63190;BME280;49286;44.460;26.114;2023-05-23T03:30:57;100273.53;;;14.29;100.00
63190;BME280;49286;44.460;26.114;2023-05-23T03:33:23;100283.88;;;14.40;100.00
63190;BME280;49286;44.460;26.114;2023-05-23T03:35:49;100284.94;;;14.31;100.00
63190;BME280;49286;44.460;26.114;2023-05-23T03:38:14;100299.84;;;14.32;100.00
63190;BME280;49286;44.460;26.114;2023-05-23T03:40:40;100292.47;;;14.51;100.00
63190;BME280;49286;44.460;26.114;2023-05-23T03:43:07;100264.06;;;14.14;100.00
63190;BME280;49286;44.460;26.114;2023-05-23T03:45:33;100283.00;;;14.39;100.00
63190;BME280;49286;44.460;26.114;2023-05-23T03:47:58;100303.78;;;14.61;100.00
63190;BME280;49286;44.460;26.114;2023-05-23T03:50:24;100305.69;;;14.51;100.00
63190;BME280;49286;44.460;26.114;2023-05-23T03:52:50;100304.66;;;14.61;100.00
63190;BME280;49286;44.460;26.114;2023-05-23T03:55:16;100304.75;;;14.55;100.00
63190;BME280;49286;44.460;26.114;2023-05-23T03:57:46;100318.41;;;14.78;100.00
63190;BME280;49286;44.460;26.114;2023-05-23T04:00:11;100325.16;;;14.93;100.00
63190;BME280;49286;44.460;26.114;2023-05-23T04:02:37;100273.97;;;14.52;100.00
63190;BME280;49286;44.460;26.114;2023-05-23T04:05:05;100328.06;;;14.80;100.00
63190;BME280;49286;44.460;26.114;2023-05-23T04:07:31;100311.56;;;14.68;100.00
63190;BME280;49286;44.460;26.114;2023-05-23T04:09:59;100299.38;;;14.61;100.00
63190;BME280;49286;44.460;26.114;2023-05-23T04:12:25;100269.56;;;14.51;100.00
63190;BME280;49286;44.460;26.114;2023-05-23T04:14:50;100339.22;;;14.97;100.00
63190;BME280;49286;44.460;26.114;2023-05-23T04:17:16;100313.97;;;14.82;100.00
63190;BME280;49286;44.460;26.114;2023-05-23T04:19:43;100355.06;;;14.95;100.00
63190;BME280;49286;44.460;26.114;2023-05-23T04:22:09;100320.78;;;14.92;100.00
63190;BME280;49286;44.460;26.114;2023-05-23T04:24:34;100307.56;;;14.94;100.00
63190;BME280;49286;44.460;26.114;2023-05-23T04:27:01;100356.25;;;15.26;100.00
63190;BME280;49286;44.460;26.114;2023-05-23T04:29:26;100306.81;;;14.86;100.00
63190;BME280;49286;44.460;26.114;2023-05-23T04:31:56;100332.81;;;15.07;100.00
63190;BME280;49286;44.460;26.114;2023-05-23T04:34:21;100287.88;;;15.09;100.00
63190;BME280;49286;44.460;26.114;2023-05-23T04:36:47;100322.63;;;15.34;100.00
63190;BME280;49286;44.460;26.114;2023-05-23T04:39:13;100360.22;;;15.48;100.00
63190;BME280;49286;44.460;26.114;2023-05-23T04:41:40;100278.59;;;14.89;100.00
63190;BME280;49286;44.460;26.114;2023-05-23T04:44:06;100370.25;;;15.74;100.00
63190;BME280;49286;44.460;26.114;2023-05-23T04:46:34;100338.66;;;15.67;100.00
63190;BME280;49286;44.460;26.114;2023-05-23T04:49:01;100367.03;;;15.99;100.00
63190;BME280;49286;44.460;26.114;2023-05-23T04:51:26;100309.59;;;15.65;100.00
63190;BME280;49286;44.460;26.114;2023-05-23T04:53:52;100368.50;;;16.12;100.00
63190;BME280;49286;44.460;26.114;2023-05-23T04:56:17;100298.53;;;15.87;100.00
63190;BME280;49286;44.460;26.114;2023-05-23T04:58:45;100296.63;;;15.93;100.00
63190;BME280;49286;44.460;26.114;2023-05-23T05:01:11;100319.66;;;16.25;100.00
63190;BME280;49286;44.460;26.114;2023-05-23T05:03:36;100292.72;;;16.44;100.00
63190;BME280;49286;44.460;26.114;2023-05-23T05:06:02;100362.16;;;17.22;100.00
63190;BME280;49286;44.460;26.114;2023-05-23T05:08:28;100313.69;;;17.17;100.00
63190;BME280;49286;44.460;26.114;2023-05-23T05:10:54;100316.13;;;17.55;100.00
63190;BME280;49286;44.460;26.114;2023-05-23T05:13:19;100322.25;;;18.14;100.00
63190;BME280;49286;44.460;26.114;2023-05-23T05:15:45;100387.97;;;18.89;100.00
63190;BME280;49286;44.460;26.114;2023-05-23T05:18:11;100353.09;;;19.22;100.00
63190;BME280;49286;44.460;26.114;2023-05-23T05:20:37;100331.41;;;19.09;100.00
63190;BME280;49286;44.460;26.114;2023-05-23T05:23:03;100341.72;;;19.66;100.00
63190;BME280;49286;44.460;26.114;2023-05-23T05:25:28;100316.66;;;19.71;100.00
63190;BME280;49286;44.460;26.114;2023-05-23T05:28:00;100388.84;;;20.53;100.00
63190;BME280;49286;44.460;26.114;2023-05-23T05:30:31;100384.97;;;20.18;100.00
63190;BME280;49286;44.460;26.114;2023-05-23T05:33:02;100389.78;;;20.95;100.00
63190;BME280;49286;44.460;26.114;2023-05-23T05:35:32;100399.56;;;21.56;100.00
63190;BME280;49286;44.460;26.114;2023-05-23T05:37:59;100394.97;;;21.39;100.00
63190;BME280;49286;44.460;26.114;2023-05-23T05:40:25;100391.34;;;21.98;100.00
63190;BME280;49286;44.460;26.114;2023-05-23T05:42:50;100355.56;;;21.64;100.00
63190;BME280;49286;44.460;26.114;2023-05-23T05:45:16;100387.97;;;21.95;100.00
63190;BME280;49286;44.460;26.114;2023-05-23T05:47:41;100400.44;;;21.56;100.00
63190;BME280;49286;44.460;26.114;2023-05-23T05:50:07;100378.75;;;21.23;97.91
63190;BME280;49286;44.460;26.114;2023-05-23T05:52:34;100331.72;;;21.41;98.90
63190;BME280;49286;44.460;26.114;2023-05-23T05:55:09;100401.31;;;21.57;100.00
63190;BME280;49286;44.460;26.114;2023-05-23T05:57:38;100382.31;;;21.63;97.78
63190;BME280;49286;44.460;26.114;2023-05-23T06:02:39;100374.63;;;22.67;85.96
63190;BME280;49286;44.460;26.114;2023-05-23T06:05:06;100394.47;;;23.15;77.99
63190;BME280;49286;44.460;26.114;2023-05-23T06:07:34;100380.13;;;21.91;77.06
63190;BME280;49286;44.460;26.114;2023-05-23T06:10:01;100347.16;;;21.91;78.72
63190;BME280;49286;44.460;26.114;2023-05-23T06:12:26;100350.50;;;21.58;78.83
63190;BME280;49286;44.460;26.114;2023-05-23T06:14:52;100391.13;;;21.84;80.88
63190;BME280;49286;44.460;26.114;2023-05-23T06:17:17;100375.56;;;22.49;80.51
63190;BME280;49286;44.460;26.114;2023-05-23T06:19:43;100291.16;;;22.43;75.32
63190;BME280;49286;44.460;26.114;2023-05-23T06:22:08;100336.59;;;22.07;69.37
63190;BME280;49286;44.460;26.114;2023-05-23T06:24:34;100386.03;;;22.88;67.71
63190;BME280;49286;44.460;26.114;2023-05-23T06:26:59;100390.59;;;23.88;62.38
63190;BME280;49286;44.460;26.114;2023-05-23T06:29:25;100381.41;;;23.76;61.80
63190;BME280;49286;44.460;26.114;2023-05-23T06:31:50;100401.84;;;22.75;59.18
63190;BME280;49286;44.460;26.114;2023-05-23T06:34:16;100385.34;;;22.31;62.85
63190;BME280;49286;44.460;26.114;2023-05-23T06:36:41;100383.13;;;22.22;65.36
63190;BME280;49286;44.460;26.114;2023-05-23T06:39:07;100328.56;;;22.26;65.29
63190;BME280;49286;44.460;26.114;2023-05-23T06:41:34;100390.50;;;22.53;62.80
63190;BME280;49286;44.460;26.114;2023-05-23T06:44:00;100385.56;;;22.80;61.65
63190;BME280;49286;44.460;26.114;2023-05-23T06:46:25;100383.91;;;22.77;56.99
63190;BME280;49286;44.460;26.114;2023-05-23T06:48:51;100385.13;;;23.07;57.54
63190;BME280;49286;44.460;26.114;2023-05-23T06:51:16;100386.31;;;22.47;57.09
63190;BME280;49286;44.460;26.114;2023-05-23T06:53:42;100382.38;;;22.18;57.91
63190;BME280;49286;44.460;26.114;2023-05-23T06:56:07;100367.28;;;22.17;59.95
63190;BME280;49286;44.460;26.114;2023-05-23T06:58:33;100339.69;;;22.53;57.55
63190;BME280;49286;44.460;26.114;2023-05-23T07:00:58;100371.31;;;22.80;57.29
63190;BME280;49286;44.460;26.114;2023-05-23T07:03:24;100346.13;;;23.01;55.64
63190;BME280;49286;44.460;26.114;2023-05-23T07:05:49;100321.03;;;22.86;54.65
63190;BME280;49286;44.460;26.114;2023-05-23T07:08:15;100349.84;;;23.65;66.89
63190;BME280;49286;44.460;26.114;2023-05-23T07:10:41;100353.75;;;22.39;61.71
63190;BME280;49286;44.460;26.114;2023-05-23T07:13:06;100357.59;;;22.33;59.52
63190;BME280;49286;44.460;26.114;2023-05-23T07:15:32;100350.22;;;22.91;62.32
63190;BME280;49286;44.460;26.114;2023-05-23T07:17:57;100354.22;;;22.30;58.65
63190;BME280;49286;44.460;26.114;2023-05-23T07:20:22;100356.34;;;22.75;61.85
63190;BME280;49286;44.460;26.114;2023-05-23T07:22:48;100279.97;;;22.18;64.16
63190;BME280;49286;44.460;26.114;2023-05-23T07:25:16;100284.00;;;22.07;79.51
63190;BME280;49286;44.460;26.114;2023-05-23T07:27:41;100350.09;;;22.76;61.54
63190;BME280;49286;44.460;26.114;2023-05-23T07:30:07;100343.56;;;22.65;64.08
63190;BME280;49286;44.460;26.114;2023-05-23T07:32:34;100345.00;;;21.99;57.25
63190;BME280;49286;44.460;26.114;2023-05-23T07:35:00;100345.50;;;22.44;61.80
63190;BME280;49286;44.460;26.114;2023-05-23T07:37:25;100344.50;;;22.99;61.43
63190;BME280;49286;44.460;26.114;2023-05-23T07:39:52;100347.66;;;22.72;61.10
63190;BME280;49286;44.460;26.114;2023-05-23T07:42:17;100349.31;;;22.57;58.33
63190;BME280;49286;44.460;26.114;2023-05-23T07:44:43;100353.59;;;22.25;55.62
63190;BME280;49286;44.460;26.114;2023-05-23T07:47:08;100347.25;;;22.80;61.46
63190;BME280;49286;44.460;26.114;2023-05-23T07:49:34;100359.28;;;22.53;58.32
63190;BME280;49286;44.460;26.114;2023-05-23T07:52:00;100279.75;;;22.22;57.97
63190;BME280;49286;44.460;26.114;2023-05-23T07:54:25;100355.31;;;22.26;56.64
63190;BME280;49286;44.460;26.114;2023-05-23T07:56:52;100349.22;;;23.11;59.10
63190;BME280;49286;44.460;26.114;2023-05-23T07:59:17;100351.91;;;23.27;59.28
63190;BME280;49286;44.460;26.114;2023-05-23T08:01:43;100351.50;;;23.01;58.69
63190;BME280;49286;44.460;26.114;2023-05-23T08:04:09;100341.44;;;22.71;60.56
63190;BME280;49286;44.460;26.114;2023-05-23T08:06:34;100342.00;;;22.78;61.09
63190;BME280;49286;44.460;26.114;2023-05-23T08:09:00;100311.34;;;22.66;59.06
63190;BME280;49286;44.460;26.114;2023-05-23T08:11:26;100330.09;;;22.84;57.35
63190;BME280;49286;44.460;26.114;2023-05-23T08:13:53;100351.78;;;22.77;60.74
63190;BME280;49286;44.460;26.114;2023-05-23T08:16:18;100280.06;;;23.19;59.60
63190;BME280;49286;44.460;26.114;2023-05-23T08:18:44;100322.00;;;23.68;58.01
63190;BME280;49286;44.460;26.114;2023-05-23T08:21:09;100310.34;;;22.69;59.81
63190;BME280;49286;44.460;26.114;2023-05-23T08:23:35;100345.13;;;23.04;63.66
63190;BME280;49286;44.460;26.114;2023-05-23T08:26:00;100325.63;;;23.02;60.68
63190;BME280;49286;44.460;26.114;2023-05-23T08:28:26;100311.53;;;22.81;60.09
63190;BME280;49286;44.460;26.114;2023-05-23T08:30:51;100340.75;;;23.52;57.87
63190;BME280;49286;44.460;26.114;2023-05-23T08:33:18;100349.56;;;23.54;58.50
63190;BME280;49286;44.460;26.114;2023-05-23T08:35:43;100336.28;;;23.19;59.25
63190;BME280;49286;44.460;26.114;2023-05-23T08:38:09;100313.16;;;23.01;58.78
63190;BME280;49286;44.460;26.114;2023-05-23T08:40:35;100301.34;;;23.05;59.53
63190;BME280;49286;44.460;26.114;2023-05-23T08:43:01;100336.22;;;23.21;60.45
63190;BME280;49286;44.460;26.114;2023-05-23T08:45:26;100316.56;;;23.69;61.84
63190;BME280;49286;44.460;26.114;2023-05-23T08:47:55;100318.53;;;24.29;59.03
63190;BME280;49286;44.460;26.114;2023-05-23T08:50:21;100299.31;;;23.75;57.75
63190;BME280;49286;44.460;26.114;2023-05-23T08:52:57;100323.66;;;24.18;58.89
63190;BME280;49286;44.460;26.114;2023-05-23T08:55:29;100328.00;;;24.05;57.68
63190;BME280;49286;44.460;26.114;2023-05-23T08:57:57;100337.34;;;23.48;58.77
63190;BME280;49286;44.460;26.114;2023-05-23T09:00:26;100328.41;;;23.49;59.72
63190;BME280;49286;44.460;26.114;2023-05-23T09:02:52;100315.72;;;24.16;62.56
63190;BME280;49286;44.460;26.114;2023-05-23T09:05:19;100336.56;;;24.57;59.45
63190;BME280;49286;44.460;26.114;2023-05-23T09:07:46;100325.28;;;23.57;61.74
63190;BME280;49286;44.460;26.114;2023-05-23T09:10:12;100309.31;;;23.22;60.99
63190;BME280;49286;44.460;26.114;2023-05-23T09:12:38;100330.47;;;23.44;59.57
63190;BME280;49286;44.460;26.114;2023-05-23T09:15:05;100317.50;;;24.16;59.50
63190;BME280;49286;44.460;26.114;2023-05-23T09:17:32;100315.06;;;24.88;59.41
63190;BME280;49286;44.460;26.114;2023-05-23T09:19:58;100271.25;;;25.44;54.73
63190;BME280;49286;44.460;26.114;2023-05-23T09:22:25;100288.06;;;24.60;58.00
63190;BME280;49286;44.460;26.114;2023-05-23T09:24:52;100278.72;;;24.37;59.30
63190;BME280;49286;44.460;26.114;2023-05-23T09:27:18;100314.97;;;24.75;57.10
63190;BME280;49286;44.460;26.114;2023-05-23T09:29:43;100309.56;;;24.14;58.11
63190;BME280;49286;44.460;26.114;2023-05-23T09:32:12;100292.69;;;24.58;55.87
63190;BME280;49286;44.460;26.114;2023-05-23T09:34:53;100309.34;;;24.33;56.92
63190;BME280;49286;44.460;26.114;2023-05-23T09:37:19;100311.03;;;24.04;56.63
63190;BME280;49286;44.460;26.114;2023-05-23T09:39:49;100312.00;;;24.03;54.81
63190;BME280;49286;44.460;26.114;2023-05-23T09:42:21;100312.81;;;24.35;55.56
63190;BME280;49286;44.460;26.114;2023-05-23T09:44:47;100310.91;;;24.37;53.98
63190;BME280;49286;44.460;26.114;2023-05-23T09:47:15;100302.97;;;24.80;54.63
63190;BME280;49286;44.460;26.114;2023-05-23T09:49:42;100292.78;;;24.41;54.41
63190;BME280;49286;44.460;26.114;2023-05-23T09:52:09;100291.75;;;24.74;56.66
63190;BME280;49286;44.460;26.114;2023-05-23T09:54:35;100299.94;;;25.01;57.11
63190;BME280;49286;44.460;26.114;2023-05-23T09:57:01;100275.66;;;25.17;52.72
63190;BME280;49286;44.460;26.114;2023-05-23T09:59:30;100275.28;;;25.52;51.12
63190;BME280;49286;44.460;26.114;2023-05-23T10:01:56;100285.28;;;26.18;53.44
63190;BME280;49286;44.460;26.114;2023-05-23T10:04:23;100291.81;;;26.41;49.54
63190;BME280;49286;44.460;26.114;2023-05-23T10:06:59;100294.59;;;26.13;49.86
63190;BME280;49286;44.460;26.114;2023-05-23T10:09:32;100272.03;;;26.68;48.78
63190;BME280;49286;44.460;26.114;2023-05-23T10:15:01;100227.03;;;25.50;51.36
63190;BME280;49286;44.460;26.114;2023-05-23T10:20:10;100258.69;;;25.02;49.27
63190;BME280;49286;44.460;26.114;2023-05-23T10:22:37;100261.56;;;25.42;50.32
63190;BME280;49286;44.460;26.114;2023-05-23T10:25:03;100283.59;;;26.03;49.99
63190;BME280;49286;44.460;26.114;2023-05-23T10:27:30;100281.13;;;26.00;51.22
63190;BME280;49286;44.460;26.114;2023-05-23T10:29:57;100278.13;;;26.04;49.93
63190;BME280;49286;44.460;26.114;2023-05-23T10:32:24;100254.59;;;26.99;46.99
63190;BME280;49286;44.460;26.114;2023-05-23T10:35:06;100269.03;;;26.98;47.60
63190;BME280;49286;44.460;26.114;2023-05-23T10:38:01;100273.34;;;26.22;48.13
63190;BME280;49286;44.460;26.114;2023-05-23T10:43:43;100275.69;;;26.14;48.63
63190;BME280;49286;44.460;26.114;2023-05-23T10:46:14;100254.56;;;26.08;48.09
63190;BME280;49286;44.460;26.114;2023-05-23T10:48:41;100262.50;;;25.55;48.83
63190;BME280;49286;44.460;26.114;2023-05-23T10:51:12;100270.22;;;25.74;48.67
63190;BME280;49286;44.460;26.114;2023-05-23T10:53:52;100268.38;;;25.89;49.79
63190;BME280;49286;44.460;26.114;2023-05-23T10:56:20;100024.56;;;24.97;48.48
63190;BME280;49286;44.460;26.114;2023-05-23T10:58:52;100237.19;;;25.45;49.67
63190;BME280;49286;44.460;26.114;2023-05-23T11:01:19;100210.03;;;25.77;48.50
63190;BME280;49286;44.460;26.114;2023-05-23T11:09:04;100237.13;;;25.74;51.65
63190;BME280;49286;44.460;26.114;2023-05-23T11:12:01;100260.47;;;26.00;48.13
63190;BME280;49286;44.460;26.114;2023-05-23T11:16:58;100252.84;;;24.95;49.96
63190;BME280;49286;44.460;26.114;2023-05-23T11:19:26;100246.94;;;25.60;48.17
63190;BME280;49286;44.460;26.114;2023-05-23T11:21:58;100256.59;;;24.93;49.20
63190;BME280;49286;44.460;26.114;2023-05-23T11:24:53;100258.81;;;25.15;49.93
63190;BME280;49286;44.460;26.114;2023-05-23T11:30:01;100251.03;;;25.66;51.42
63190;BME280;49286;44.460;26.114;2023-05-23T11:32:30;100218.13;;;25.35;51.98
63190;BME280;49286;44.460;26.114;2023-05-23T11:35:03;100212.69;;;24.94;50.03
63190;BME280;49286;44.460;26.114;2023-05-23T11:37:29;100223.72;;;25.03;49.19
63190;BME280;49286;44.460;26.114;2023-05-23T11:39:55;100157.00;;;24.54;48.43
63190;BME280;49286;44.460;26.114;2023-05-23T11:42:21;100218.34;;;25.59;49.40
63190;BME280;49286;44.460;26.114;2023-05-23T11:44:51;100236.72;;;25.53;48.37
63190;BME280;49286;44.460;26.114;2023-05-23T11:47:17;100242.28;;;25.35;48.72
63190;BME280;49286;44.460;26.114;2023-05-23T11:49:46;100168.31;;;24.59;48.10
63190;BME280;49286;44.460;26.114;2023-05-23T11:52:12;100179.78;;;24.90;49.69
63190;BME280;49286;44.460;26.114;2023-05-23T11:54:41;100232.44;;;25.36;49.59
63190;BME280;49286;44.460;26.114;2023-05-23T11:57:10;100231.78;;;24.89;49.62
63190;BME280;49286;44.460;26.114;2023-05-23T11:59:35;100237.41;;;25.13;50.51
63190;BME280;49286;44.460;26.114;2023-05-23T12:02:02;100200.88;;;24.68;48.73
63190;BME280;49286;44.460;26.114;2023-05-23T12:04:28;100226.09;;;25.08;53.08
63190;BME280;49286;44.460;26.114;2023-05-23T12:06:53;100183.78;;;25.12;50.16
63190;BME280;49286;44.460;26.114;2023-05-23T12:09:19;100222.78;;;24.46;54.60
63190;BME280;49286;44.460;26.114;2023-05-23T12:11:47;100212.78;;;24.92;50.49
63190;BME280;49286;44.460;26.114;2023-05-23T12:14:14;100202.78;;;23.76;54.50
63190;BME280;49286;44.460;26.114;2023-05-23T12:16:42;100215.19;;;24.54;52.46
63190;BME280;49286;44.460;26.114;2023-05-23T12:19:09;100219.53;;;24.40;50.01
63190;BME280;49286;44.460;26.114;2023-05-23T12:21:46;100169.47;;;23.65;51.06
63190;BME280;49286;44.460;26.114;2023-05-23T12:24:16;100226.75;;;24.54;49.53
63190;BME280;49286;44.460;26.114;2023-05-23T12:26:59;100217.94;;;24.52;51.99
63190;BME280;49286;44.460;26.114;2023-05-23T12:29:30;100205.91;;;24.43;50.30
63190;BME280;49286;44.460;26.114;2023-05-23T12:32:02;100205.88;;;24.88;49.04
63190;BME280;49286;44.460;26.114;2023-05-23T12:34:28;100209.06;;;24.36;50.71
63190;BME280;49286;44.460;26.114;2023-05-23T12:36:54;100196.94;;;24.00;56.25
63190;BME280;49286;44.460;26.114;2023-05-23T12:39:25;100208.63;;;24.58;51.23
63190;BME280;49286;44.460;26.114;2023-05-23T12:41:51;100165.69;;;24.43;49.27
63190;BME280;49286;44.460;26.114;2023-05-23T12:44:17;100213.56;;;24.66;47.32
63190;BME280;49286;44.460;26.114;2023-05-23T12:46:43;100183.34;;;24.62;49.99
63190;BME280;49286;44.460;26.114;2023-05-23T12:49:09;100205.38;;;24.67;51.57
63190;BME280;49286;44.460;26.114;2023-05-23T12:51:35;100196.97;;;24.88;48.98
63190;BME280;49286;44.460;26.114;2023-05-23T12:54:01;100165.22;;;24.51;52.58
63190;BME280;49286;44.460;26.114;2023-05-23T12:56:35;100191.88;;;24.10;55.78
63190;BME280;49286;44.460;26.114;2023-05-23T12:59:03;100189.00;;;23.83;56.24
63190;BME280;49286;44.460;26.114;2023-05-23T13:01:29;100155.22;;;24.39;51.27
63190;BME280;49286;44.460;26.114;2023-05-23T13:03:55;100146.56;;;24.05;55.22
63190;BME280;49286;44.460;26.114;2023-05-23T13:06:20;100165.44;;;24.18;53.29
63190;BME280;49286;44.460;26.114;2023-05-23T13:08:45;100192.94;;;24.52;51.66